Time;durP1;ratioP1;P1;durP2;ratioP2;P2;SDS_P1;SDS_P2;PMS_P1;PMS_P2;Temp;Humidity;BMP_temperature;BMP_pressure;BME280_temperature;BME280_humidity;BME280_pressure;Samples;Min_cycle;Max_cycle;Signal;HPM_P1;HPM_P2
2023/03/03 00:00:34;;;;;;;0.80;0.20;;;19.60;1.00;;;;;;5051879;28;20041;-38
2023/03/03 00:03:05;;;;;;;0.88;0.45;;;19.60;1.00;;;;;;5050907;28;20107;-38
2023/03/03 00:05:33;;;;;;;1.30;0.40;;;19.60;1.00;;;;;;5051893;28;20087;-38
2023/03/03 00:08:01;;;;;;;1.17;0.40;;;19.50;1.00;;;;;;5051696;28;20045;-38
2023/03/03 00:10:27;;;;;;;2.40;0.30;;;19.50;1.00;;;;;;5051801;28;20044;-38
2023/03/03 00:12:54;;;;;;;1.40;0.70;;;19.40;1.00;;;;;;5050997;28;20539;-38
2023/03/03 00:15:25;;;;;;;0.50;0.20;;;19.40;1.00;;;;;;5051628;28;20560;-38
2023/03/03 00:17:52;;;;;;;0.55;0.20;;;19.30;1.00;;;;;;5051699;28;20049;-38
2023/03/03 00:20:36;;;;;;;1.40;0.30;;;19.30;1.00;;;;;;5051686;28;20041;-38
2023/03/03 00:23:19;;;;;;;2.58;0.20;;;19.20;1.00;;;;;;5050719;28;20090;-38
2023/03/03 00:25:49;;;;;;;1.65;0.38;;;19.20;1.00;;;;;;5051625;28;20041;-38
2023/03/03 00:28:30;;;;;;;0.93;0.30;;;19.20;1.00;;;;;;5051683;28;20045;-38
2023/03/03 00:30:59;;;;;;;2.35;0.40;;;19.10;1.00;;;;;;5050255;28;20048;-38
2023/03/03 00:33:32;;;;;;;0.50;0.30;;;19.10;1.00;;;;;;5050868;28;20064;-38
2023/03/03 00:36:27;;;;;;;1.27;0.38;;;19.00;1.00;;;;;;5050388;28;20492;-38
2023/03/03 00:38:56;;;;;;;0.98;0.35;;;19.00;1.00;;;;;;5046736;28;20420;-38
2023/03/03 00:41:26;;;;;;;0.80;0.40;;;18.90;1.00;;;;;;5043522;28;20132;-38
2023/03/03 00:43:53;;;;;;;0.43;0.20;;;18.90;1.00;;;;;;5046241;28;20128;-38
2023/03/03 00:46:22;;;;;;;0.68;0.25;;;18.90;1.00;;;;;;5051190;28;20403;-38
2023/03/03 00:48:49;;;;;;;0.70;0.30;;;18.80;1.00;;;;;;5051312;28;20495;-38
2023/03/03 00:51:29;;;;;;;0.90;0.30;;;18.80;1.00;;;;;;5053272;28;20597;-38
2023/03/03 00:53:57;;;;;;;0.82;0.20;;;18.70;1.00;;;;;;5054274;28;20431;-38
2023/03/03 00:56:25;;;;;;;0.52;0.52;;;18.70;1.00;;;;;;5017466;28;20060;-37
2023/03/03 00:58:52;;;;;;;0.93;0.20;;;18.70;1.00;;;;;;5017420;28;20049;-38
2023/03/03 01:01:21;;;;;;;0.50;0.20;;;18.70;1.00;;;;;;5017442;28;20046;-38
2023/03/03 01:03:51;;;;;;;1.42;0.30;;;18.60;1.00;;;;;;5016557;28;20137;-38
2023/03/03 01:06:17;;;;;;;2.05;0.68;;;18.60;1.00;;;;;;5034970;28;20045;-38
2023/03/03 01:08:44;;;;;;;0.77;0.25;;;18.60;1.00;;;;;;5043150;28;20044;-38
2023/03/03 01:11:15;;;;;;;1.70;0.55;;;18.50;1.00;;;;;;5053566;28;20052;-38
2023/03/03 01:13:44;;;;;;;0.60;0.30;;;18.50;1.00;;;;;;5052873;28;20069;-38
2023/03/03 01:16:11;;;;;;;0.60;0.17;;;18.40;1.00;;;;;;5054769;28;20076;-38
2023/03/03 01:18:40;;;;;;;0.90;0.30;;;18.40;1.00;;;;;;5054837;28;20056;-38
2023/03/03 01:21:09;;;;;;;1.33;0.40;;;18.40;1.00;;;;;;5054572;28;20060;-38
2023/03/03 01:23:37;;;;;;;0.70;0.30;;;18.40;1.00;;;;;;5052419;28;20048;-38
2023/03/03 01:26:06;;;;;;;2.53;0.55;;;18.30;1.00;;;;;;5053373;28;20041;-38
2023/03/03 01:28:33;;;;;;;0.43;0.20;;;18.30;1.00;;;;;;5052560;28;20045;-38
2023/03/03 01:31:04;;;;;;;0.77;0.20;;;18.20;1.00;;;;;;5049457;28;20087;-39
2023/03/03 01:33:33;;;;;;;1.73;0.40;;;18.20;1.00;;;;;;5038738;28;20049;-38
2023/03/03 01:36:00;;;;;;;1.23;0.30;;;18.20;1.00;;;;;;5051149;28;20492;-38
2023/03/03 01:38:27;;;;;;;1.38;0.50;;;18.10;1.00;;;;;;5053008;28;20451;-38
2023/03/03 01:40:57;;;;;;;1.30;0.40;;;18.20;1.00;;;;;;5054352;28;20487;-38
2023/03/03 01:43:29;;;;;;;0.50;0.20;;;18.10;1.00;;;;;;5045265;28;20049;-38
2023/03/03 01:45:56;;;;;;;1.57;0.20;;;18.10;1.00;;;;;;5052841;28;20103;-38
2023/03/03 01:48:36;;;;;;;2.47;0.43;;;18.10;1.00;;;;;;5054124;28;20067;-39
2023/03/03 01:51:13;;;;;;;0.52;0.20;;;18.00;1.00;;;;;;5050068;28;20073;-38
2023/03/03 01:53:50;;;;;;;1.27;0.28;;;18.00;1.00;;;;;;5052106;28;20064;-38
2023/03/03 01:56:17;;;;;;;2.45;0.40;;;18.00;1.00;;;;;;5054023;28;20460;-38
2023/03/03 01:59:01;;;;;;;0.60;0.20;;;17.90;1.00;;;;;;5052703;28;20053;-38
2023/03/03 02:01:28;;;;;;;1.45;0.52;;;17.90;1.00;;;;;;5045725;28;20045;-38
2023/03/03 02:03:58;;;;;;;0.90;0.38;;;17.80;1.00;;;;;;5052989;28;20037;-38
2023/03/03 02:06:32;;;;;;;1.40;0.40;;;17.90;1.00;;;;;;5052601;28;20095;-38
2023/03/03 02:09:15;;;;;;;0.82;0.20;;;17.80;1.00;;;;;;5052424;28;20041;-37
2023/03/03 02:11:45;;;;;;;1.30;0.40;;;17.80;1.00;;;;;;5053891;28;20037;-37
2023/03/03 02:14:12;;;;;;;0.32;0.20;;;17.80;1.00;;;;;;5049748;28;20554;-38
2023/03/03 02:16:42;;;;;;;0.55;0.20;;;17.70;1.00;;;;;;5053608;28;20037;-38
2023/03/03 02:19:30;;;;;;;1.10;0.30;;;17.70;1.00;;;;;;5035668;28;20137;-37
2023/03/03 02:21:58;;;;;;;1.27;0.43;;;17.70;1.00;;;;;;5035691;28;20045;-38
2023/03/03 02:24:32;;;;;;;1.38;0.57;;;17.70;1.00;;;;;;5052638;28;20076;-38
2023/03/03 02:26:59;;;;;;;0.63;0.30;;;17.60;1.00;;;;;;5035647;28;20639;-37
2023/03/03 02:29:28;;;;;;;2.13;0.30;;;17.60;1.00;;;;;;5035591;28;20115;-38
2023/03/03 02:31:55;;;;;;;0.77;0.28;;;17.60;1.00;;;;;;5053212;28;20403;-37
2023/03/03 02:34:23;;;;;;;1.27;0.50;;;17.60;1.00;;;;;;5034746;28;20493;-38
2023/03/03 02:36:51;;;;;;;2.25;0.57;;;17.50;1.00;;;;;;5053293;28;20447;-37
2023/03/03 02:39:23;;;;;;;0.40;0.13;;;17.50;1.00;;;;;;5035400;28;20571;-37
2023/03/03 02:42:05;;;;;;;0.82;0.20;;;17.50;1.00;;;;;;5035339;28;20048;-38
2023/03/03 02:44:40;;;;;;;0.80;0.22;;;17.50;1.00;;;;;;5052589;28;20539;-38
2023/03/03 02:47:07;;;;;;;1.33;0.22;;;17.40;1.00;;;;;;5053152;28;20408;-37
2023/03/03 02:49:35;;;;;;;0.75;0.20;;;17.40;1.00;;;;;;5053066;28;20095;-37
2023/03/03 02:52:04;;;;;;;0.35;0.15;;;17.40;1.00;;;;;;5035151;28;20099;-37
2023/03/03 02:54:32;;;;;;;1.30;0.30;;;17.40;1.00;;;;;;5034235;28;20053;-37
2023/03/03 02:57:01;;;;;;;0.73;0.28;;;17.40;1.00;;;;;;5034900;28;20054;-37
2023/03/03 02:59:28;;;;;;;1.45;0.30;;;17.30;1.00;;;;;;5052866;28;20074;-37
2023/03/03 03:01:57;;;;;;;0.70;0.20;;;17.30;1.00;;;;;;5035279;28;20033;-37
2023/03/03 03:04:26;;;;;;;0.95;0.30;;;17.30;1.00;;;;;;5051934;28;20408;-37
2023/03/03 03:06:55;;;;;;;0.80;0.40;;;17.30;1.00;;;;;;5034848;28;20049;-37
2023/03/03 03:09:24;;;;;;;1.30;0.75;;;17.20;1.00;;;;;;5034593;28;20049;-37
2023/03/03 03:11:52;;;;;;;0.73;0.15;;;17.20;1.00;;;;;;5034637;28;20421;-37
2023/03/03 03:14:23;;;;;;;0.50;0.15;;;17.20;1.00;;;;;;5051235;28;20111;-37
2023/03/03 03:16:51;;;;;;;0.88;0.20;;;17.20;1.00;;;;;;5034705;28;20052;-37
2023/03/03 03:19:19;;;;;;;0.90;0.50;;;17.10;1.00;;;;;;5034510;28;20512;-37
2023/03/03 03:21:46;;;;;;;0.65;0.30;;;17.10;1.00;;;;;;5034372;28;20144;-37
2023/03/03 03:24:15;;;;;;;2.50;0.17;;;17.10;1.00;;;;;;5033696;28;20076;-37
2023/03/03 03:26:46;;;;;;;2.03;0.45;;;17.10;1.00;;;;;;5034444;28;20075;-37
2023/03/03 03:29:14;;;;;;;0.95;0.10;;;17.10;1.00;;;;;;5034443;28;20124;-37
2023/03/03 03:31:42;;;;;;;0.55;0.20;;;17.00;1.00;;;;;;5034440;28;20488;-38
2023/03/03 03:34:09;;;;;;;0.40;0.20;;;17.00;1.00;;;;;;5051363;28;20045;-37
2023/03/03 03:36:38;;;;;;;1.05;0.50;;;17.00;1.00;;;;;;5052111;28;20770;-37
2023/03/03 03:39:05;;;;;;;0.70;0.20;;;17.00;1.00;;;;;;5034194;28;20513;-37
2023/03/03 03:41:35;;;;;;;0.82;0.30;;;16.90;1.00;;;;;;5034333;28;20520;-37
2023/03/03 03:44:02;;;;;;;1.00;0.20;;;16.90;1.00;;;;;;5033244;28;20045;-37
2023/03/03 03:46:29;;;;;;;0.63;0.20;;;16.90;1.00;;;;;;5034221;28;20052;-37
2023/03/03 03:48:56;;;;;;;1.17;0.25;;;16.90;1.00;;;;;;5033989;28;20532;-37
2023/03/03 03:51:23;;;;;;;0.40;0.10;;;16.90;1.00;;;;;;5052042;28;20045;-37
2023/03/03 03:53:50;;;;;;;0.68;0.35;;;16.90;1.00;;;;;;5033137;28;20065;-37
2023/03/03 03:56:16;;;;;;;0.75;0.30;;;16.80;1.00;;;;;;5033969;28;20079;-37
2023/03/03 03:58:46;;;;;;;0.35;0.10;;;16.80;1.00;;;;;;5033616;28;20056;-37
2023/03/03 04:01:14;;;;;;;1.25;0.25;;;16.80;1.00;;;;;;5034036;28;20094;-37
2023/03/03 04:03:46;;;;;;;0.88;0.25;;;16.70;1.00;;;;;;5050871;28;20559;-38
2023/03/03 04:06:16;;;;;;;1.17;0.28;;;16.70;1.00;;;;;;5033913;28;20415;-37
2023/03/03 04:08:43;;;;;;;0.77;0.20;;;16.70;1.00;;;;;;5033912;28;20456;-37
2023/03/03 04:11:10;;;;;;;1.23;0.20;;;16.70;1.00;;;;;;5033794;28;20086;-37
2023/03/03 04:13:37;;;;;;;0.85;0.15;;;16.70;1.00;;;;;;5033010;28;20053;-37
2023/03/03 04:16:06;;;;;;;0.88;0.20;;;16.60;1.00;;;;;;5051607;28;20051;-37
2023/03/03 04:18:34;;;;;;;1.45;0.30;;;16.70;1.00;;;;;;5033841;28;20079;-37
2023/03/03 04:21:02;;;;;;;0.60;0.20;;;16.60;1.00;;;;;;5033767;28;20049;-38
2023/03/03 04:23:29;;;;;;;0.45;0.15;;;16.60;1.00;;;;;;5032774;28;20045;-39
2023/03/03 04:25:55;;;;;;;0.50;0.20;;;16.60;1.00;;;;;;5053097;28;20412;-37
2023/03/03 04:28:24;;;;;;;1.15;0.65;;;16.60;1.00;;;;;;5037776;28;20041;-37
2023/03/03 04:30:51;;;;;;;0.98;0.30;;;16.50;1.00;;;;;;5055572;28;20120;-37
2023/03/03 04:33:19;;;;;;;2.15;0.30;;;16.50;1.00;;;;;;5036905;28;20049;-37
2023/03/03 04:35:47;;;;;;;2.17;0.30;;;16.50;1.00;;;;;;5055544;28;20041;-37
2023/03/03 04:38:14;;;;;;;2.45;0.30;;;16.50;1.00;;;;;;5055601;28;20090;-37
2023/03/03 04:40:42;;;;;;;0.55;0.25;;;16.50;1.00;;;;;;5037559;28;20041;-37
2023/03/03 04:43:11;;;;;;;0.45;0.17;;;16.50;1.00;;;;;;5036457;28;20044;-37
2023/03/03 04:45:37;;;;;;;0.80;0.10;;;16.50;1.00;;;;;;5037419;28;20036;-37
2023/03/03 04:48:06;;;;;;;0.70;0.20;;;16.40;1.00;;;;;;5037479;28;20040;-37
2023/03/03 04:50:34;;;;;;;1.85;0.20;;;16.40;1.00;;;;;;5037383;28;20215;-37
2023/03/03 04:53:01;;;;;;;0.73;0.17;;;16.40;1.00;;;;;;5036653;28;20128;-37
2023/03/03 04:55:27;;;;;;;1.48;0.30;;;16.40;1.00;;;;;;5055178;28;20044;-37
2023/03/03 04:57:54;;;;;;;0.57;0.20;;;16.40;1.00;;;;;;5055017;28;20103;-37
2023/03/03 05:00:21;;;;;;;1.55;0.20;;;16.30;1.00;;;;;;5037194;28;20401;-37
2023/03/03 05:02:48;;;;;;;0.40;0.20;;;16.30;1.00;;;;;;5036391;28;20045;-37
2023/03/03 05:05:15;;;;;;;0.77;0.10;;;16.30;1.00;;;;;;5037095;28;20052;-37
2023/03/03 05:07:42;;;;;;;1.27;0.20;;;16.30;1.00;;;;;;5054965;28;20068;-37
2023/03/03 05:10:09;;;;;;;0.93;0.22;;;16.30;1.00;;;;;;5054753;28;20067;-37
2023/03/03 05:12:36;;;;;;;1.40;0.25;;;16.30;1.00;;;;;;5050259;28;20045;-37
2023/03/03 05:15:04;;;;;;;0.55;0.17;;;16.20;1.00;;;;;;5047098;28;20041;-37
2023/03/03 05:17:31;;;;;;;0.73;0.45;;;16.20;1.00;;;;;;5045419;28;20178;-38
2023/03/03 05:19:57;;;;;;;0.43;0.20;;;16.20;1.00;;;;;;5034773;28;20045;-37
2023/03/03 05:22:24;;;;;;;0.65;0.10;;;16.20;1.00;;;;;;5034256;28;20045;-37
2023/03/03 05:24:52;;;;;;;1.77;0.22;;;16.20;1.00;;;;;;5016668;28;20110;-37
2023/03/03 05:27:19;;;;;;;4.20;0.17;;;16.20;1.00;;;;;;5034565;28;20037;-37
2023/03/03 05:29:46;;;;;;;1.00;0.30;;;16.10;1.00;;;;;;5034645;28;20060;-38
2023/03/03 05:32:12;;;;;;;8.63;0.98;;;16.10;1.00;;;;;;5034282;28;20461;-37
2023/03/03 05:34:39;;;;;;;2.58;0.55;;;16.10;1.00;;;;;;5034129;28;20041;-37
2023/03/03 05:37:06;;;;;;;1.23;0.52;;;16.10;1.00;;;;;;5034040;28;20041;-37
2023/03/03 05:39:34;;;;;;;8.85;1.10;;;16.10;1.00;;;;;;5034415;28;20497;-37
2023/03/03 05:42:01;;;;;;;1.70;0.77;;;16.00;1.00;;;;;;5034322;28;20045;-37
2023/03/03 05:44:28;;;;;;;5.40;0.95;;;16.00;1.00;;;;;;5033612;28;20092;-38
2023/03/03 05:46:56;;;;;;;3.15;0.80;;;16.00;1.00;;;;;;5034234;28;20076;-37
2023/03/03 05:49:23;;;;;;;0.73;0.30;;;16.00;1.00;;;;;;5034339;28;20068;-37
2023/03/03 05:51:50;;;;;;;1.60;0.45;;;16.00;1.00;;;;;;5034075;28;20042;-37
2023/03/03 05:54:17;;;;;;;3.42;0.50;;;16.00;1.00;;;;;;5033432;28;20041;-38
2023/03/03 05:56:44;;;;;;;0.80;0.32;;;15.90;1.00;;;;;;5038248;28;20065;-38
2023/03/03 05:59:11;;;;;;;2.13;0.73;;;15.90;1.00;;;;;;5052943;28;20072;-38
2023/03/03 06:01:37;;;;;;;1.95;0.40;;;15.90;1.00;;;;;;5049843;28;20480;-37
2023/03/03 06:04:04;;;;;;;1.90;0.60;;;15.90;1.00;;;;;;5052421;28;20045;-38
2023/03/03 06:06:31;;;;;;;1.48;0.40;;;15.90;1.00;;;;;;5053760;28;20106;-38
2023/03/03 06:08:58;;;;;;;2.92;1.20;;;15.90;1.00;;;;;;5053873;28;20174;-37
2023/03/03 06:11:24;;;;;;;2.35;0.52;;;15.80;1.00;;;;;;5053768;28;20045;-37
2023/03/03 06:13:51;;;;;;;3.42;0.30;;;15.80;1.00;;;;;;5053017;28;20045;-37
2023/03/03 06:16:18;;;;;;;1.20;0.40;;;15.80;1.00;;;;;;5052075;28;20037;-37
2023/03/03 06:18:45;;;;;;;1.05;0.22;;;15.80;1.00;;;;;;5038915;28;20075;-37
2023/03/03 06:21:12;;;;;;;1.60;0.32;;;15.80;1.00;;;;;;5038091;28;20052;-37
2023/03/03 06:23:39;;;;;;;1.23;0.38;;;15.70;1.00;;;;;;5054137;22;20057;-36
2023/03/03 06:26:05;;;;;;;2.33;0.30;;;15.70;1.00;;;;;;5067140;28;20438;-36
2023/03/03 06:28:32;;;;;;;2.00;0.28;;;15.70;1.00;;;;;;5073143;28;20510;-36
2023/03/03 06:30:59;;;;;;;3.03;0.80;;;15.70;1.00;;;;;;5072980;28;20044;-37
2023/03/03 06:33:26;;;;;;;2.08;0.40;;;15.70;1.00;;;;;;5072405;28;20044;-37
2023/03/03 06:35:54;;;;;;;1.70;0.40;;;15.70;1.00;;;;;;5073288;28;20123;-37
2023/03/03 06:38:21;;;;;;;2.50;0.70;;;15.70;1.00;;;;;;5073261;28;20044;-37
2023/03/03 06:40:47;;;;;;;1.73;0.55;;;15.60;1.00;;;;;;5073094;28;20052;-37
2023/03/03 06:43:14;;;;;;;1.95;0.38;;;15.60;1.00;;;;;;5072195;28;20404;-37
2023/03/03 06:45:42;;;;;;;2.15;0.52;;;15.60;1.00;;;;;;5073017;28;20499;-37
2023/03/03 06:48:09;;;;;;;1.92;0.38;;;15.60;1.00;;;;;;5072228;28;20036;-37
2023/03/03 06:50:38;;;;;;;3.80;0.60;;;15.60;1.00;;;;;;5072656;28;20036;-37
2023/03/03 06:53:14;;;;;;;1.08;0.30;;;15.60;1.00;;;;;;5071925;28;20051;-37
2023/03/03 06:55:43;;;;;;;1.70;0.32;;;15.60;1.00;;;;;;5072761;28;20048;-37
2023/03/03 06:58:16;;;;;;;3.08;0.47;;;15.50;1.00;;;;;;5072634;28;20055;-37
2023/03/03 07:01:07;;;;;;;3.70;0.50;;;15.50;1.00;;;;;;5072830;28;20098;-37
2023/03/03 07:03:34;;;;;;;2.35;0.30;;;15.50;1.00;;;;;;5071871;28;20053;-38
2023/03/03 07:06:13;;;;;;;1.45;0.38;;;15.50;1.00;;;;;;5072456;28;20040;-37
2023/03/03 07:08:40;;;;;;;2.45;0.70;;;15.50;1.00;;;;;;5072550;28;20044;-37
2023/03/03 07:11:11;;;;;;;1.67;0.50;;;15.50;1.00;;;;;;5071258;28;20051;-37
2023/03/03 07:13:43;;;;;;;2.08;0.65;;;15.50;1.00;;;;;;5071677;28;20064;-38
2023/03/03 07:16:13;;;;;;;0.52;0.15;;;15.40;1.00;;;;;;5072358;28;20044;-37
2023/03/03 07:18:51;;;;;;;0.68;0.28;;;15.40;1.00;;;;;;5071057;28;20144;-37
2023/03/03 07:21:25;;;;;;;2.20;0.40;;;15.40;1.00;;;;;;5072266;28;20051;-37
2023/03/03 07:23:52;;;;;;;1.48;0.52;;;15.40;1.00;;;;;;5071266;28;20059;-38
2023/03/03 07:26:27;;;;;;;0.98;0.52;;;15.40;1.00;;;;;;5072320;28;20091;-37
2023/03/03 07:28:58;;;;;;;1.85;0.40;;;15.40;1.00;;;;;;5072312;28;20506;-37
2023/03/03 07:31:39;;;;;;;0.30;0.10;;;15.40;1.00;;;;;;5072719;28;20450;-38
2023/03/03 07:34:46;;;;;;;0.82;0.35;;;15.30;1.00;;;;;;5070189;28;20083;-37
2023/03/03 07:37:17;;;;;;;2.15;0.55;;;15.30;1.00;;;;;;5029946;28;20628;-38
2023/03/03 07:39:46;;;;;;;2.17;0.45;;;15.30;1.00;;;;;;5024327;28;20559;-37
2023/03/03 07:42:29;;;;;;;1.35;0.22;;;15.30;1.00;;;;;;5051999;28;20080;-38
2023/03/03 07:45:43;;;;;;;2.03;0.40;;;15.30;1.00;;;;;;5070596;28;20040;-37
2023/03/03 07:48:33;;;;;;;1.38;0.38;;;15.30;1.00;;;;;;5071988;28;20052;-37
2023/03/03 07:51:32;;;;;;;2.15;0.20;;;15.30;1.00;;;;;;5072003;28;20048;-37
2023/03/03 07:54:54;;;;;;;2.10;0.35;;;15.20;1.00;;;;;;5048987;28;20048;-38
2023/03/03 07:58:31;;;;;;;0.80;0.28;;;15.20;1.00;;;;;;5071793;28;20055;-38
2023/03/03 08:01:39;;;;;;;1.17;0.20;;;15.20;1.00;;;;;;5071824;28;20092;-37
2023/03/03 08:04:19;;;;;;;2.28;0.47;;;15.20;1.00;;;;;;5070994;28;20445;-36
2023/03/03 08:06:51;;;;;;;0.30;0.10;;;15.20;1.00;;;;;;5071169;28;20135;-36
2023/03/03 08:09:24;;;;;;;0.88;0.20;;;15.20;1.00;;;;;;5071781;28;20444;-37
2023/03/03 08:11:56;;;;;;;0.68;0.28;;;15.20;1.00;;;;;;5071742;28;20051;-37
2023/03/03 08:14:34;;;;;;;0.60;0.15;;;15.20;1.00;;;;;;5070854;28;20384;-37
2023/03/03 08:17:13;;;;;;;2.22;0.22;;;15.20;1.00;;;;;;5071550;28;20133;-37
2023/03/03 08:19:39;;;;;;;1.13;0.32;;;15.10;1.00;;;;;;5071699;28;20064;-37
2023/03/03 08:22:34;;;;;;;0.75;0.30;;;15.20;1.00;;;;;;5071403;28;20041;-37
2023/03/03 08:25:01;;;;;;;1.77;0.40;;;15.10;1.00;;;;;;5071331;28;20075;-37
2023/03/03 08:27:28;;;;;;;2.08;0.40;;;15.10;1.00;;;;;;5071506;28;20115;-37
2023/03/03 08:29:55;;;;;;;2.60;0.30;;;15.10;1.00;;;;;;5071498;28;20037;-37
2023/03/03 08:32:22;;;;;;;0.80;0.35;;;15.10;1.00;;;;;;5071062;28;20037;-39
2023/03/03 08:34:49;;;;;;;1.77;0.50;;;15.10;1.00;;;;;;5070960;28;20044;-37
2023/03/03 08:37:15;;;;;;;1.60;0.30;;;15.10;1.00;;;;;;5071512;28;20123;-37
2023/03/03 08:39:43;;;;;;;1.58;0.30;;;15.10;1.00;;;;;;5071358;28;20048;-37
2023/03/03 08:42:09;;;;;;;1.10;0.20;;;15.10;1.00;;;;;;5071110;28;20389;-37
2023/03/03 08:44:36;;;;;;;1.10;0.43;;;15.00;1.00;;;;;;5070628;28;20040;-37
2023/03/03 08:47:06;;;;;;;1.42;0.40;;;15.00;1.00;;;;;;5071376;28;20400;-37
2023/03/03 08:49:33;;;;;;;0.82;0.20;;;15.00;1.00;;;;;;5071383;28;20037;-37
2023/03/03 08:52:00;;;;;;;1.23;0.50;;;15.00;1.00;;;;;;5071732;28;20036;-37
2023/03/03 08:54:27;;;;;;;0.98;0.43;;;15.00;1.00;;;;;;5070356;28;20070;-37
2023/03/03 08:56:53;;;;;;;1.45;0.22;;;15.00;1.00;;;;;;5071154;28;20476;-37
2023/03/03 08:59:21;;;;;;;0.52;0.20;;;15.00;1.00;;;;;;5070897;28;20041;-37
2023/03/03 09:01:48;;;;;;;1.13;0.50;;;15.00;1.00;;;;;;5071212;28;20032;-37
2023/03/03 09:04:15;;;;;;;0.85;0.30;;;15.00;1.00;;;;;;5070391;28;20067;-37
2023/03/03 09:06:41;;;;;;;0.63;0.32;;;15.00;1.00;;;;;;5070813;28;20542;-37
2023/03/03 09:09:08;;;;;;;0.50;0.20;;;15.00;1.00;;;;;;5071026;28;20048;-37
2023/03/03 09:11:35;;;;;;;0.55;0.20;;;15.00;1.00;;;;;;5071828;28;20044;-37
2023/03/03 09:14:14;;;;;;;3.90;0.45;;;15.00;1.00;;;;;;5074313;28;20046;-37
2023/03/03 09:16:52;;;;;;;1.17;0.30;;;15.00;1.00;;;;;;5074548;28;20052;-37
2023/03/03 09:19:31;;;;;;;2.88;0.40;;;15.00;1.00;;;;;;5074776;28;20041;-37
2023/03/03 09:22:16;;;;;;;1.10;0.10;;;15.00;1.00;;;;;;5074596;28;20061;-37
2023/03/03 09:24:43;;;;;;;0.40;0.10;;;14.90;1.00;;;;;;5073960;28;20044;-37
2023/03/03 09:27:19;;;;;;;0.88;0.30;;;14.90;1.00;;;;;;5074786;28;20068;-37
2023/03/03 09:29:46;;;;;;;0.85;0.30;;;14.90;1.00;;;;;;5074615;28;20044;-37
2023/03/03 09:32:21;;;;;;;2.05;0.40;;;14.90;1.00;;;;;;5074035;28;20116;-37
2023/03/03 09:34:48;;;;;;;0.52;0.17;;;14.90;1.00;;;;;;5074229;28;20041;-37
2023/03/03 09:37:18;;;;;;;0.45;0.20;;;14.90;1.00;;;;;;5074427;28;20040;-37
2023/03/03 09:39:49;;;;;;;1.70;0.17;;;14.90;1.00;;;;;;5074473;28;20076;-37
2023/03/03 09:42:21;;;;;;;0.68;0.30;;;14.90;1.00;;;;;;5073903;28;20067;-38
2023/03/03 09:45:19;;;;;;;1.70;0.38;;;14.90;1.00;;;;;;5073627;28;20053;-37
2023/03/03 09:48:22;;;;;;;0.82;0.60;;;14.90;1.00;;;;;;5074445;28;20045;-37
2023/03/03 09:51:23;;;;;;;1.17;0.20;;;14.90;1.00;;;;;;5074111;28;20040;-37
2023/03/03 09:54:01;;;;;;;1.88;0.25;;;14.90;1.00;;;;;;5073323;28;20036;-37
2023/03/03 09:56:48;;;;;;;2.05;0.10;;;14.80;1.00;;;;;;5072831;28;20052;-37
2023/03/03 09:59:23;;;;;;;1.08;0.20;;;14.80;1.00;;;;;;5073970;28;20488;-37
2023/03/03 10:02:41;;;;;;;2.45;0.38;;;14.80;1.00;;;;;;5074003;28;20044;-38
2023/03/03 10:05:59;;;;;;;2.65;0.73;;;14.80;1.00;;;;;;5050869;28;20357;-38
2023/03/03 10:08:45;;;;;;;1.40;0.40;;;14.80;1.00;;;;;;5051075;28;20135;-38
2023/03/03 10:11:41;;;;;;;1.70;0.73;;;14.80;1.00;;;;;;5073833;28;20472;-38
2023/03/03 10:14:17;;;;;;;0.35;0.17;;;14.80;1.00;;;;;;5071176;28;20068;-38
2023/03/03 10:17:08;;;;;;;2.72;0.30;;;14.80;1.00;;;;;;5073525;28;20044;-38
2023/03/03 10:19:51;;;;;;;1.20;0.30;;;14.80;1.00;;;;;;5073488;28;20438;-37
2023/03/03 10:22:23;;;;;;;1.35;0.35;;;14.80;1.00;;;;;;5073018;28;20052;-38
2023/03/03 10:25:21;;;;;;;0.30;0.10;;;14.80;1.00;;;;;;5072181;28;20044;-37
2023/03/03 10:27:55;;;;;;;0.60;0.20;;;14.80;1.00;;;;;;5073856;28;20033;-37
2023/03/03 10:31:03;;;;;;;1.13;0.17;;;14.80;1.00;;;;;;5073333;28;20131;-37
2023/03/03 10:34:15;;;;;;;0.55;0.10;;;14.80;1.00;;;;;;5072632;28;20044;-36
2023/03/03 10:36:54;;;;;;;;;;;14.70;1.00;;;;;;5073471;28;20044;-37
2023/03/03 10:39:53;;;;;;;1.38;0.10;;;14.70;1.00;;;;;;5073290;28;19921;-36
2023/03/03 10:42:31;;;;;;;0.50;0.20;;;14.70;1.00;;;;;;5072907;28;20075;-37
2023/03/03 10:45:07;;;;;;;0.52;0.15;;;14.70;1.00;;;;;;5072332;28;20040;-37
2023/03/03 10:47:56;;;;;;;1.77;0.20;;;14.70;1.00;;;;;;5073013;28;20503;-37
2023/03/03 10:50:49;;;;;;;3.30;0.40;;;14.70;1.00;;;;;;5072994;28;20500;-37
2023/03/03 10:53:58;;;;;;;1.10;0.30;;;14.70;1.00;;;;;;5072056;28;20127;-37
2023/03/03 10:56:59;;;;;;;3.05;0.50;;;14.70;1.00;;;;;;5072821;28;20044;-37
2023/03/03 10:59:53;;;;;;;0.43;0.10;;;14.70;1.00;;;;;;5072702;28;20051;-37
2023/03/03 11:02:31;;;;;;;0.82;0.13;;;14.70;1.00;;;;;;5072457;28;20048;-37
2023/03/03 11:05:11;;;;;;;0.10;0.00;;;14.70;1.00;;;;;;5072167;28;20053;-37
2023/03/03 11:07:40;;;;;;;0.30;0.10;;;14.70;1.00;;;;;;5072682;28;20484;-37
2023/03/03 11:10:32;;;;;;;1.85;0.52;;;14.70;1.00;;;;;;5072287;28;20084;-37
2023/03/03 11:13:17;;;;;;;0.55;0.35;;;14.70;1.00;;;;;;5071610;28;20508;-37
2023/03/03 11:16:05;;;;;;;3.10;0.20;;;14.70;1.00;;;;;;5072522;28;20048;-37
2023/03/03 11:19:07;;;;;;;0.80;0.13;;;14.70;1.00;;;;;;5072279;28;20407;-37
2023/03/03 11:21:42;;;;;;;1.45;0.20;;;14.70;1.00;;;;;;5050864;28;20102;-37
2023/03/03 11:24:20;;;;;;;0.45;0.10;;;14.70;1.00;;;;;;5071398;28;20040;-37
2023/03/03 11:27:17;;;;;;;1.88;0.30;;;14.70;1.00;;;;;;5072063;28;20048;-37
2023/03/03 11:30:15;;;;;;;0.28;0.08;;;14.70;1.00;;;;;;5072287;28;20037;-37
2023/03/03 11:32:45;;;;;;;0.90;0.35;;;14.70;1.00;;;;;;5071282;28;20049;-37
2023/03/03 11:35:17;;;;;;;0.50;0.10;;;14.70;1.00;;;;;;5071723;28;20044;-38
2023/03/03 11:37:49;;;;;;;4.22;0.30;;;14.70;1.00;;;;;;5072147;28;20060;-37
2023/03/03 11:40:23;;;;;;;6.10;0.95;;;14.70;1.00;;;;;;5069866;28;20123;-37
2023/03/03 11:43:04;;;;;;;2.58;0.50;;;14.70;1.00;;;;;;5070615;28;20032;-37
2023/03/03 11:45:42;;;;;;;7.88;0.65;;;14.70;1.00;;;;;;5064663;28;20051;-37
2023/03/03 11:48:37;;;;;;;1.33;0.40;;;14.70;1.00;;;;;;5072014;28;20518;-37
2023/03/03 11:51:12;;;;;;;2.55;0.55;;;14.70;1.00;;;;;;5071998;28;20059;-37
2023/03/03 11:54:06;;;;;;;3.97;0.70;;;14.70;1.00;;;;;;5071253;28;20040;-37
2023/03/03 11:56:38;;;;;;;4.57;1.30;;;14.70;1.00;;;;;;5071859;28;20044;-37
2023/03/03 11:59:16;;;;;;;4.80;0.60;;;14.60;1.00;;;;;;5070691;28;20530;-37
2023/03/03 12:01:54;;;;;;;3.65;0.75;;;14.60;1.00;;;;;;5071765;28;20051;-37
2023/03/03 12:04:25;;;;;;;1.10;0.25;;;14.60;1.00;;;;;;5069768;28;20486;-37
2023/03/03 12:07:17;;;;;;;7.03;0.63;;;14.60;1.00;;;;;;5071674;28;20047;-37
2023/03/03 12:09:48;;;;;;;1.50;0.43;;;14.60;1.00;;;;;;5071815;28;20043;-37
2023/03/03 12:12:31;;;;;;;4.63;0.63;;;14.60;1.00;;;;;;5071543;28;20075;-37
2023/03/03 12:15:03;;;;;;;7.05;0.80;;;14.60;1.00;;;;;;5071420;28;20040;-37
2023/03/03 12:18:01;;;;;;;4.47;0.60;;;14.60;1.00;;;;;;5071653;28;20045;-37
2023/03/03 12:20:49;;;;;;;3.85;0.60;;;14.60;1.00;;;;;;5071796;28;20052;-37
2023/03/03 12:23:37;;;;;;;6.20;0.82;;;14.60;1.00;;;;;;5081421;22;20044;-39
2023/03/03 12:26:11;;;;;;;1.80;1.08;;;14.60;1.00;;;;;;5052431;28;20072;-39
2023/03/03 12:29:01;;;;;;;3.95;1.05;;;14.50;1.00;;;;;;5055794;28;20037;-39
2023/03/03 12:31:52;;;;;;;2.92;0.40;;;14.50;1.00;;;;;;5055082;28;20500;-39
2023/03/03 12:34:42;;;;;;;7.15;0.65;;;14.50;1.00;;;;;;5049726;28;20033;-39
2023/03/03 12:37:15;;;;;;;6.72;0.90;;;14.50;1.00;;;;;;5051294;28;20056;-39
2023/03/03 12:39:55;;;;;;;7.50;0.68;;;14.50;1.00;;;;;;5053426;28;20072;-39
2023/03/03 12:43:00;;;;;;;5.80;0.70;;;14.50;1.00;;;;;;5054106;28;20037;-39
2023/03/03 12:45:49;;;;;;;4.00;0.38;;;14.50;1.00;;;;;;5041229;28;20076;-39
2023/03/03 12:48:19;;;;;;;3.17;0.60;;;14.50;1.00;;;;;;5053454;28;20116;-39
2023/03/03 12:50:57;;;;;;;5.10;1.02;;;14.50;1.00;;;;;;5055142;28;20523;-39
2023/03/03 12:53:31;;;;;;;8.18;2.05;;;14.50;1.00;;;;;;5053927;28;20068;-39
2023/03/03 12:56:05;;;;;;;3.90;0.63;;;14.50;1.00;;;;;;5053189;28;20040;-39
2023/03/03 12:58:50;;;;;;;7.13;1.08;;;14.50;1.00;;;;;;5047009;28;20052;-39
2023/03/03 13:01:27;;;;;;;4.13;0.63;;;14.40;1.00;;;;;;5054799;28;20103;-39
2023/03/03 13:04:18;;;;;;;4.75;0.73;;;14.50;1.00;;;;;;5059498;28;20439;-39
2023/03/03 13:07:18;;;;;;;5.25;0.95;;;14.50;1.00;;;;;;5051870;28;20064;-39
2023/03/03 13:09:54;;;;;;;4.72;1.40;;;14.40;1.00;;;;;;5051206;28;20045;-39
2023/03/03 13:12:44;;;;;;;3.72;1.00;;;14.40;1.00;;;;;;5054485;28;20086;-39
2023/03/03 13:15:31;;;;;;;3.90;0.70;;;14.40;1.00;;;;;;5054442;28;20049;-39
2023/03/03 13:18:25;;;;;;;6.30;2.15;;;14.40;1.00;;;;;;5054890;28;20124;-39
2023/03/03 13:21:05;;;;;;;3.88;0.60;;;14.40;1.00;;;;;;5052147;28;20036;-39
2023/03/03 13:23:47;;;;;;;3.83;0.70;;;14.40;1.00;;;;;;5052504;28;20362;-39
2023/03/03 13:26:34;;;;;;;4.10;1.02;;;14.40;1.00;;;;;;5054024;28;20124;-38
2023/03/03 13:29:20;;;;;;;8.05;1.48;;;14.40;1.00;;;;;;5053326;28;20116;-38
2023/03/03 13:31:50;;;;;;;9.00;1.48;;;14.40;1.00;;;;;;5061807;28;20041;-38
2023/03/03 13:34:33;;;;;;;2.78;0.90;;;14.40;1.00;;;;;;5055599;28;20064;-39
2023/03/03 13:37:20;;;;;;;4.75;1.02;;;14.40;1.00;;;;;;5054337;28;20041;-39